sensor_id;sensor_type;location;lat;lon;timestamp;temperature;humidity
23237;DHT22;11787;52.018;8.570;2024-02-04T00:00:47;9.10;99.90
23237;DHT22;11787;52.018;8.570;2024-02-04T00:03:13;9.20;99.90
23237;DHT22;11787;52.018;8.570;2024-02-04T00:05:38;9.10;99.90
23237;DHT22;11787;52.018;8.570;2024-02-04T00:08:04;9.10;99.90
23237;DHT22;11787;52.018;8.570;2024-02-04T00:10:30;9.10;99.90
23237;DHT22;11787;52.018;8.570;2024-02-04T00:12:55;9.00;99.90
23237;DHT22;11787;52.018;8.570;2024-02-04T00:15:21;9.00;99.90
23237;DHT22;11787;52.018;8.570;2024-02-04T00:17:46;9.00;99.90
23237;DHT22;11787;52.018;8.570;2024-02-04T00:20:12;8.90;99.90
23237;DHT22;11787;52.018;8.570;2024-02-04T00:22:38;9.00;99.90
23237;DHT22;11787;52.018;8.570;2024-02-04T00:25:03;9.00;99.90
23237;DHT22;11787;52.018;8.570;2024-02-04T00:27:35;9.00;99.90
23237;DHT22;11787;52.018;8.570;2024-02-04T00:30:01;9.00;99.90
23237;DHT22;11787;52.018;8.570;2024-02-04T00:32:27;8.90;99.90
23237;DHT22;11787;52.018;8.570;2024-02-04T00:34:53;8.90;99.90
23237;DHT22;11787;52.018;8.570;2024-02-04T00:37:19;8.90;99.90
23237;DHT22;11787;52.018;8.570;2024-02-04T00:39:45;8.90;99.90
23237;DHT22;11787;52.018;8.570;2024-02-04T00:42:10;8.90;99.90
23237;DHT22;11787;52.018;8.570;2024-02-04T00:44:36;8.90;99.90
23237;DHT22;11787;52.018;8.570;2024-02-04T00:47:01;8.90;99.90
23237;DHT22;11787;52.018;8.570;2024-02-04T00:49:27;8.90;99.90
23237;DHT22;11787;52.018;8.570;2024-02-04T00:51:53;8.90;99.90
23237;DHT22;11787;52.018;8.570;2024-02-04T00:54:18;8.90;99.90
23237;DHT22;11787;52.018;8.570;2024-02-04T00:56:44;8.90;99.90
23237;DHT22;11787;52.018;8.570;2024-02-04T00:59:10;8.90;99.90
23237;DHT22;11787;52.018;8.570;2024-02-04T01:01:35;8.90;99.90
23237;DHT22;11787;52.018;8.570;2024-02-04T01:04:01;8.90;99.90
23237;DHT22;11787;52.018;8.570;2024-02-04T01:06:26;8.90;99.90
23237;DHT22;11787;52.018;8.570;2024-02-04T01:08:53;8.80;99.90
23237;DHT22;11787;52.018;8.570;2024-02-04T01:11:19;8.90;99.90
23237;DHT22;11787;52.018;8.570;2024-02-04T01:13:45;8.90;99.90
23237;DHT22;11787;52.018;8.570;2024-02-04T01:16:10;8.90;99.90
23237;DHT22;11787;52.018;8.570;2024-02-04T01:18:36;8.90;99.90
23237;DHT22;11787;52.018;8.570;2024-02-04T01:21:01;8.90;99.90
23237;DHT22;11787;52.018;8.570;2024-02-04T01:23:27;8.90;99.90
23237;DHT22;11787;52.018;8.570;2024-02-04T01:25:52;8.90;99.90
23237;DHT22;11787;52.018;8.570;2024-02-04T01:28:18;8.90;99.90
23237;DHT22;11787;52.018;8.570;2024-02-04T01:30:43;8.90;99.90
23237;DHT22;11787;52.018;8.570;2024-02-04T01:33:09;8.90;99.90
23237;DHT22;11787;52.018;8.570;2024-02-04T01:35:35;8.90;99.90
23237;DHT22;11787;52.018;8.570;2024-02-04T01:38:00;8.90;99.90
23237;DHT22;11787;52.018;8.570;2024-02-04T01:40:26;8.90;99.90
23237;DHT22;11787;52.018;8.570;2024-02-04T01:42:51;8.90;99.90
23237;DHT22;11787;52.018;8.570;2024-02-04T01:45:17;8.90;99.90
23237;DHT22;11787;52.018;8.570;2024-02-04T01:47:42;8.90;99.90
23237;DHT22;11787;52.018;8.570;2024-02-04T01:50:09;8.90;99.90
23237;DHT22;11787;52.018;8.570;2024-02-04T01:52:37;8.90;99.90
23237;DHT22;11787;52.018;8.570;2024-02-04T01:55:05;8.90;99.90
23237;DHT22;11787;52.018;8.570;2024-02-04T01:57:31;9.00;99.90
23237;DHT22;11787;52.018;8.570;2024-02-04T01:59:57;9.00;99.90
23237;DHT22;11787;52.018;8.570;2024-02-04T02:02:25;9.10;99.90
23237;DHT22;11787;52.018;8.570;2024-02-04T02:04:51;9.10;99.90
23237;DHT22;11787;52.018;8.570;2024-02-04T02:07:17;9.10;99.90
23237;DHT22;11787;52.018;8.570;2024-02-04T02:09:45;9.20;99.90
23237;DHT22;11787;52.018;8.570;2024-02-04T02:12:14;9.30;99.90
23237;DHT22;11787;52.018;8.570;2024-02-04T02:14:44;9.30;99.90
23237;DHT22;11787;52.018;8.570;2024-02-04T02:17:15;9.30;99.90
23237;DHT22;11787;52.018;8.570;2024-02-04T02:20:05;9.30;99.90
23237;DHT22;11787;52.018;8.570;2024-02-04T02:23:08;9.40;99.90
23237;DHT22;11787;52.018;8.570;2024-02-04T02:25:36;9.50;99.90
23237;DHT22;11787;52.018;8.570;2024-02-04T02:28:03;9.50;99.90
23237;DHT22;11787;52.018;8.570;2024-02-04T02:30:29;9.60;99.90
23237;DHT22;11787;52.018;8.570;2024-02-04T02:32:55;9.60;99.90
23237;DHT22;11787;52.018;8.570;2024-02-04T02:35:22;9.60;99.90
23237;DHT22;11787;52.018;8.570;2024-02-04T02:43:03;9.60;99.90
23237;DHT22;11787;52.018;8.570;2024-02-04T02:45:30;9.60;99.90
23237;DHT22;11787;52.018;8.570;2024-02-04T02:47:57;9.60;99.90
23237;DHT22;11787;52.018;8.570;2024-02-04T02:50:23;9.60;99.90
23237;DHT22;11787;52.018;8.570;2024-02-04T02:52:49;9.60;99.90
23237;DHT22;11787;52.018;8.570;2024-02-04T02:55:15;9.60;99.90
23237;DHT22;11787;52.018;8.570;2024-02-04T02:57:40;9.60;99.90
23237;DHT22;11787;52.018;8.570;2024-02-04T03:00:06;9.60;99.90
23237;DHT22;11787;52.018;8.570;2024-02-04T03:02:33;9.60;99.90
23237;DHT22;11787;52.018;8.570;2024-02-04T03:04:58;9.60;99.90
23237;DHT22;11787;52.018;8.570;2024-02-04T03:07:24;9.70;99.90
23237;DHT22;11787;52.018;8.570;2024-02-04T03:09:49;9.70;99.90
23237;DHT22;11787;52.018;8.570;2024-02-04T03:12:15;9.60;99.90
23237;DHT22;11787;52.018;8.570;2024-02-04T03:14:40;9.50;99.90
23237;DHT22;11787;52.018;8.570;2024-02-04T03:17:06;9.50;99.90
23237;DHT22;11787;52.018;8.570;2024-02-04T03:19:31;9.50;99.90
23237;DHT22;11787;52.018;8.570;2024-02-04T03:21:57;9.40;99.90
23237;DHT22;11787;52.018;8.570;2024-02-04T03:24:22;9.40;99.90
23237;DHT22;11787;52.018;8.570;2024-02-04T03:26:48;9.40;99.90
23237;DHT22;11787;52.018;8.570;2024-02-04T03:29:14;9.40;99.90
23237;DHT22;11787;52.018;8.570;2024-02-04T03:31:39;9.40;99.90
23237;DHT22;11787;52.018;8.570;2024-02-04T03:34:05;9.40;99.90
23237;DHT22;11787;52.018;8.570;2024-02-04T03:36:30;9.40;99.90
23237;DHT22;11787;52.018;8.570;2024-02-04T03:38:57;9.40;99.90
23237;DHT22;11787;52.018;8.570;2024-02-04T03:41:22;9.40;99.90
23237;DHT22;11787;52.018;8.570;2024-02-04T03:43:48;9.40;99.90
23237;DHT22;11787;52.018;8.570;2024-02-04T03:46:14;9.40;99.90
23237;DHT22;11787;52.018;8.570;2024-02-04T03:48:40;9.40;99.90
23237;DHT22;11787;52.018;8.570;2024-02-04T03:51:06;9.30;99.90
23237;DHT22;11787;52.018;8.570;2024-02-04T03:53:31;9.30;99.90
23237;DHT22;11787;52.018;8.570;2024-02-04T03:55:57;9.30;99.90
23237;DHT22;11787;52.018;8.570;2024-02-04T03:58:23;9.30;99.90
23237;DHT22;11787;52.018;8.570;2024-02-04T04:00:55;9.20;99.90
23237;DHT22;11787;52.018;8.570;2024-02-04T04:03:20;9.20;99.90
23237;DHT22;11787;52.018;8.570;2024-02-04T04:05:46;9.20;99.90
23237;DHT22;11787;52.018;8.570;2024-02-04T04:08:12;9.20;99.90
23237;DHT22;11787;52.018;8.570;2024-02-04T04:10:38;9.30;99.90
23237;DHT22;11787;52.018;8.570;2024-02-04T04:13:03;9.30;99.90
23237;DHT22;11787;52.018;8.570;2024-02-04T04:15:29;9.30;99.90
23237;DHT22;11787;52.018;8.570;2024-02-04T04:17:54;9.30;99.90
23237;DHT22;11787;52.018;8.570;2024-02-04T04:20:20;9.30;99.90
23237;DHT22;11787;52.018;8.570;2024-02-04T04:22:45;9.30;99.90
23237;DHT22;11787;52.018;8.570;2024-02-04T04:25:11;9.30;99.90
23237;DHT22;11787;52.018;8.570;2024-02-04T04:27:37;9.30;99.90
23237;DHT22;11787;52.018;8.570;2024-02-04T04:30:02;9.30;99.90
23237;DHT22;11787;52.018;8.570;2024-02-04T04:32:28;9.30;99.90
23237;DHT22;11787;52.018;8.570;2024-02-04T04:34:54;9.20;99.90
23237;DHT22;11787;52.018;8.570;2024-02-04T04:37:21;9.20;99.90
23237;DHT22;11787;52.018;8.570;2024-02-04T04:39:46;9.30;99.90
23237;DHT22;11787;52.018;8.570;2024-02-04T04:42:12;9.30;99.90
23237;DHT22;11787;52.018;8.570;2024-02-04T04:44:37;9.30;99.90
23237;DHT22;11787;52.018;8.570;2024-02-04T04:47:03;9.30;99.90
23237;DHT22;11787;52.018;8.570;2024-02-04T04:49:28;9.20;99.90
23237;DHT22;11787;52.018;8.570;2024-02-04T04:51:54;9.20;99.90
23237;DHT22;11787;52.018;8.570;2024-02-04T04:54:19;9.20;99.90
23237;DHT22;11787;52.018;8.570;2024-02-04T04:56:45;9.20;99.90
23237;DHT22;11787;52.018;8.570;2024-02-04T04:59:11;9.20;99.90
23237;DHT22;11787;52.018;8.570;2024-02-04T05:01:36;9.30;99.90
23237;DHT22;11787;52.018;8.570;2024-02-04T05:23:24;9.10;99.90
23237;DHT22;11787;52.018;8.570;2024-02-04T05:25:49;9.10;99.90
23237;DHT22;11787;52.018;8.570;2024-02-04T05:28:15;9.10;99.90
23237;DHT22;11787;52.018;8.570;2024-02-04T05:30:40;9.10;99.90
23237;DHT22;11787;52.018;8.570;2024-02-04T05:33:06;9.10;99.90
23237;DHT22;11787;52.018;8.570;2024-02-04T05:35:32;9.10;99.90
23237;DHT22;11787;52.018;8.570;2024-02-04T05:37:57;9.10;99.90
23237;DHT22;11787;52.018;8.570;2024-02-04T05:40:23;9.20;99.90
23237;DHT22;11787;52.018;8.570;2024-02-04T05:42:48;9.10;99.90
23237;DHT22;11787;52.018;8.570;2024-02-04T05:45:14;9.20;99.90
23237;DHT22;11787;52.018;8.570;2024-02-04T05:47:40;9.20;99.90
23237;DHT22;11787;52.018;8.570;2024-02-04T05:50:06;9.10;99.90
23237;DHT22;11787;52.018;8.570;2024-02-04T05:52:31;9.10;99.90
23237;DHT22;11787;52.018;8.570;2024-02-04T05:54:57;9.20;99.90
23237;DHT22;11787;52.018;8.570;2024-02-04T05:57:22;9.20;99.90
23237;DHT22;11787;52.018;8.570;2024-02-04T05:59:50;9.20;99.90
23237;DHT22;11787;52.018;8.570;2024-02-04T06:02:18;9.20;99.90
23237;DHT22;11787;52.018;8.570;2024-02-04T06:04:43;9.20;99.90
23237;DHT22;11787;52.018;8.570;2024-02-04T06:07:09;9.20;99.90
23237;DHT22;11787;52.018;8.570;2024-02-04T06:09:35;9.20;99.90
23237;DHT22;11787;52.018;8.570;2024-02-04T06:12:01;9.20;99.90
23237;DHT22;11787;52.018;8.570;2024-02-04T06:14:26;9.20;99.90
23237;DHT22;11787;52.018;8.570;2024-02-04T06:16:52;9.20;99.90
23237;DHT22;11787;52.018;8.570;2024-02-04T06:19:17;9.10;99.90
23237;DHT22;11787;52.018;8.570;2024-02-04T06:21:43;9.10;99.90
23237;DHT22;11787;52.018;8.570;2024-02-04T06:24:08;9.10;99.90
23237;DHT22;11787;52.018;8.570;2024-02-04T06:26:37;9.10;99.90
23237;DHT22;11787;52.018;8.570;2024-02-04T06:29:03;9.10;99.90
23237;DHT22;11787;52.018;8.570;2024-02-04T06:31:29;9.10;99.90
23237;DHT22;11787;52.018;8.570;2024-02-04T06:33:54;9.10;99.90
23237;DHT22;11787;52.018;8.570;2024-02-04T06:36:20;9.00;99.90
23237;DHT22;11787;52.018;8.570;2024-02-04T06:38:46;9.10;99.90
23237;DHT22;11787;52.018;8.570;2024-02-04T06:41:11;9.10;99.90
23237;DHT22;11787;52.018;8.570;2024-02-04T06:43:37;9.10;99.90
23237;DHT22;11787;52.018;8.570;2024-02-04T06:46:03;9.10;99.90
23237;DHT22;11787;52.018;8.570;2024-02-04T06:48:29;9.10;99.90
23237;DHT22;11787;52.018;8.570;2024-02-04T06:50:54;9.20;99.90
23237;DHT22;11787;52.018;8.570;2024-02-04T06:53:20;9.10;99.90
23237;DHT22;11787;52.018;8.570;2024-02-04T06:55:45;9.10;99.90
23237;DHT22;11787;52.018;8.570;2024-02-04T06:58:11;9.10;99.90
23237;DHT22;11787;52.018;8.570;2024-02-04T07:00:36;9.10;99.90
23237;DHT22;11787;52.018;8.570;2024-02-04T07:03:02;9.10;99.90
23237;DHT22;11787;52.018;8.570;2024-02-04T07:05:28;9.10;99.90
23237;DHT22;11787;52.018;8.570;2024-02-04T07:07:53;9.10;99.90
23237;DHT22;11787;52.018;8.570;2024-02-04T07:10:19;9.10;99.90
23237;DHT22;11787;52.018;8.570;2024-02-04T07:12:45;9.10;99.90
23237;DHT22;11787;52.018;8.570;2024-02-04T07:15:10;9.10;99.90
23237;DHT22;11787;52.018;8.570;2024-02-04T07:17:36;9.10;99.90
23237;DHT22;11787;52.018;8.570;2024-02-04T07:20:02;9.00;99.90
23237;DHT22;11787;52.018;8.570;2024-02-04T07:22:28;9.10;99.90
23237;DHT22;11787;52.018;8.570;2024-02-04T07:24:54;9.10;99.90
23237;DHT22;11787;52.018;8.570;2024-02-04T07:27:19;9.10;99.90
23237;DHT22;11787;52.018;8.570;2024-02-04T07:29:45;9.10;99.90
23237;DHT22;11787;52.018;8.570;2024-02-04T07:32:12;9.00;99.90
23237;DHT22;11787;52.018;8.570;2024-02-04T07:34:38;8.90;99.90
23237;DHT22;11787;52.018;8.570;2024-02-04T07:37:03;9.00;99.90
23237;DHT22;11787;52.018;8.570;2024-02-04T07:39:29;8.90;99.90
23237;DHT22;11787;52.018;8.570;2024-02-04T07:41:56;8.90;99.90
23237;DHT22;11787;52.018;8.570;2024-02-04T07:44:26;8.90;99.90
23237;DHT22;11787;52.018;8.570;2024-02-04T07:46:51;8.90;99.90
23237;DHT22;11787;52.018;8.570;2024-02-04T07:49:17;8.80;99.90
23237;DHT22;11787;52.018;8.570;2024-02-04T07:51:42;8.90;99.90
23237;DHT22;11787;52.018;8.570;2024-02-04T07:54:08;8.80;99.90
23237;DHT22;11787;52.018;8.570;2024-02-04T07:56:34;8.80;99.90
23237;DHT22;11787;52.018;8.570;2024-02-04T07:58:59;8.80;99.90
23237;DHT22;11787;52.018;8.570;2024-02-04T08:01:25;8.80;99.90
23237;DHT22;11787;52.018;8.570;2024-02-04T08:03:51;8.80;99.90
23237;DHT22;11787;52.018;8.570;2024-02-04T08:06:16;8.70;99.90
23237;DHT22;11787;52.018;8.570;2024-02-04T08:08:42;8.80;99.90
23237;DHT22;11787;52.018;8.570;2024-02-04T08:11:09;8.80;99.90
23237;DHT22;11787;52.018;8.570;2024-02-04T08:13:35;8.80;99.90
23237;DHT22;11787;52.018;8.570;2024-02-04T08:16:01;8.80;99.90
23237;DHT22;11787;52.018;8.570;2024-02-04T08:18:26;8.80;99.90
23237;DHT22;11787;52.018;8.570;2024-02-04T08:20:52;8.80;99.90
23237;DHT22;11787;52.018;8.570;2024-02-04T08:23:18;8.70;99.90
23237;DHT22;11787;52.018;8.570;2024-02-04T08:25:44;8.80;99.90
23237;DHT22;11787;52.018;8.570;2024-02-04T08:28:10;8.80;99.90
23237;DHT22;11787;52.018;8.570;2024-02-04T08:30:35;8.80;99.90
23237;DHT22;11787;52.018;8.570;2024-02-04T08:33:01;8.80;99.90
23237;DHT22;11787;52.018;8.570;2024-02-04T08:35:26;8.70;99.90
23237;DHT22;11787;52.018;8.570;2024-02-04T08:37:52;8.70;99.90
23237;DHT22;11787;52.018;8.570;2024-02-04T08:40:17;8.70;99.90
23237;DHT22;11787;52.018;8.570;2024-02-04T08:42:43;8.60;99.90
23237;DHT22;11787;52.018;8.570;2024-02-04T08:45:09;8.60;99.90
23237;DHT22;11787;52.018;8.570;2024-02-04T08:47:35;8.60;99.90
23237;DHT22;11787;52.018;8.570;2024-02-04T08:50:00;8.60;99.90
23237;DHT22;11787;52.018;8.570;2024-02-04T08:52:26;8.50;99.90
23237;DHT22;11787;52.018;8.570;2024-02-04T08:54:51;8.50;99.90
23237;DHT22;11787;52.018;8.570;2024-02-04T08:57:17;8.60;99.90
23237;DHT22;11787;52.018;8.570;2024-02-04T08:59:43;8.60;99.90
23237;DHT22;11787;52.018;8.570;2024-02-04T09:02:08;8.60;99.90
23237;DHT22;11787;52.018;8.570;2024-02-04T09:04:34;8.60;99.90
23237;DHT22;11787;52.018;8.570;2024-02-04T09:07:06;8.60;99.90
23237;DHT22;11787;52.018;8.570;2024-02-04T09:09:32;8.60;99.90
23237;DHT22;11787;52.018;8.570;2024-02-04T09:11:57;8.60;99.90
23237;DHT22;11787;52.018;8.570;2024-02-04T09:14:23;8.60;99.90
23237;DHT22;11787;52.018;8.570;2024-02-04T09:16:48;8.60;99.90
23237;DHT22;11787;52.018;8.570;2024-02-04T09:19:14;8.60;99.90
23237;DHT22;11787;52.018;8.570;2024-02-04T09:21:40;8.60;99.90
23237;DHT22;11787;52.018;8.570;2024-02-04T09:24:05;8.60;99.90
23237;DHT22;11787;52.018;8.570;2024-02-04T09:26:31;8.60;99.90
23237;DHT22;11787;52.018;8.570;2024-02-04T09:28:56;8.70;99.90
23237;DHT22;11787;52.018;8.570;2024-02-04T09:31:22;8.70;99.90
23237;DHT22;11787;52.018;8.570;2024-02-04T09:33:47;8.70;99.90
23237;DHT22;11787;52.018;8.570;2024-02-04T09:36:13;8.70;99.90
23237;DHT22;11787;52.018;8.570;2024-02-04T09:38:40;8.70;99.90
23237;DHT22;11787;52.018;8.570;2024-02-04T09:41:05;8.70;99.90
23237;DHT22;11787;52.018;8.570;2024-02-04T09:43:35;8.70;99.90
23237;DHT22;11787;52.018;8.570;2024-02-04T09:46:01;8.70;99.90
23237;DHT22;11787;52.018;8.570;2024-02-04T09:48:32;8.70;99.90
23237;DHT22;11787;52.018;8.570;2024-02-04T09:50:58;8.80;99.90
23237;DHT22;11787;52.018;8.570;2024-02-04T09:53:33;8.70;99.90
23237;DHT22;11787;52.018;8.570;2024-02-04T09:56:04;8.80;99.90
23237;DHT22;11787;52.018;8.570;2024-02-04T09:58:31;8.70;99.90
23237;DHT22;11787;52.018;8.570;2024-02-04T10:00:57;8.80;99.90
23237;DHT22;11787;52.018;8.570;2024-02-04T10:03:24;8.80;99.90
23237;DHT22;11787;52.018;8.570;2024-02-04T10:05:50;8.80;99.90
23237;DHT22;11787;52.018;8.570;2024-02-04T10:08:16;8.80;99.90
23237;DHT22;11787;52.018;8.570;2024-02-04T10:10:41;8.80;99.90
23237;DHT22;11787;52.018;8.570;2024-02-04T10:13:10;8.90;99.90
23237;DHT22;11787;52.018;8.570;2024-02-04T10:15:36;8.90;99.90
23237;DHT22;11787;52.018;8.570;2024-02-04T10:18:05;8.90;99.90
23237;DHT22;11787;52.018;8.570;2024-02-04T10:20:32;8.80;99.90
23237;DHT22;11787;52.018;8.570;2024-02-04T10:22:57;8.90;99.90
23237;DHT22;11787;52.018;8.570;2024-02-04T10:25:23;8.90;99.90
23237;DHT22;11787;52.018;8.570;2024-02-04T10:27:49;8.90;99.90
23237;DHT22;11787;52.018;8.570;2024-02-04T10:30:15;8.90;99.90
23237;DHT22;11787;52.018;8.570;2024-02-04T10:32:41;8.90;99.90
23237;DHT22;11787;52.018;8.570;2024-02-04T10:35:08;8.90;99.90
23237;DHT22;11787;52.018;8.570;2024-02-04T10:37:34;9.00;99.90
23237;DHT22;11787;52.018;8.570;2024-02-04T10:39:59;9.00;99.90
23237;DHT22;11787;52.018;8.570;2024-02-04T10:42:26;8.90;99.90
23237;DHT22;11787;52.018;8.570;2024-02-04T10:44:54;9.00;99.90
23237;DHT22;11787;52.018;8.570;2024-02-04T10:47:22;9.10;99.90
23237;DHT22;11787;52.018;8.570;2024-02-04T10:49:51;9.10;99.90
23237;DHT22;11787;52.018;8.570;2024-02-04T10:52:18;9.00;99.90
23237;DHT22;11787;52.018;8.570;2024-02-04T10:54:44;9.00;99.90
23237;DHT22;11787;52.018;8.570;2024-02-04T10:57:12;9.00;99.90
23237;DHT22;11787;52.018;8.570;2024-02-04T10:59:42;9.10;99.90
23237;DHT22;11787;52.018;8.570;2024-02-04T11:02:10;9.10;99.90
23237;DHT22;11787;52.018;8.570;2024-02-04T11:04:36;9.10;99.90
23237;DHT22;11787;52.018;8.570;2024-02-04T11:07:03;9.10;99.90
23237;DHT22;11787;52.018;8.570;2024-02-04T11:09:29;9.10;99.90
23237;DHT22;11787;52.018;8.570;2024-02-04T11:11:58;9.20;99.90
23237;DHT22;11787;52.018;8.570;2024-02-04T11:14:25;9.30;99.90
23237;DHT22;11787;52.018;8.570;2024-02-04T11:20:05;9.40;99.90
23237;DHT22;11787;52.018;8.570;2024-02-04T11:25:44;9.40;99.90
23237;DHT22;11787;52.018;8.570;2024-02-04T11:28:15;9.40;99.90
23237;DHT22;11787;52.018;8.570;2024-02-04T11:30:43;9.40;99.90
23237;DHT22;11787;52.018;8.570;2024-02-04T11:33:11;9.40;99.90
23237;DHT22;11787;52.018;8.570;2024-02-04T11:35:37;9.30;99.90
23237;DHT22;11787;52.018;8.570;2024-02-04T11:38:05;9.40;99.90
23237;DHT22;11787;52.018;8.570;2024-02-04T11:40:35;9.40;99.90
23237;DHT22;11787;52.018;8.570;2024-02-04T11:43:12;9.40;99.90
23237;DHT22;11787;52.018;8.570;2024-02-04T11:45:39;9.40;99.90
23237;DHT22;11787;52.018;8.570;2024-02-04T11:48:07;9.30;99.90
23237;DHT22;11787;52.018;8.570;2024-02-04T11:50:33;9.30;99.90
23237;DHT22;11787;52.018;8.570;2024-02-04T11:53:11;9.30;99.90
23237;DHT22;11787;52.018;8.570;2024-02-04T11:55:39;9.30;99.90
23237;DHT22;11787;52.018;8.570;2024-02-04T11:58:05;9.30;99.90
23237;DHT22;11787;52.018;8.570;2024-02-04T12:00:37;9.30;99.90
23237;DHT22;11787;52.018;8.570;2024-02-04T12:03:06;9.30;99.90
23237;DHT22;11787;52.018;8.570;2024-02-04T12:05:34;9.30;99.90
23237;DHT22;11787;52.018;8.570;2024-02-04T12:08:06;9.20;99.90
23237;DHT22;11787;52.018;8.570;2024-02-04T12:10:33;9.20;99.90
23237;DHT22;11787;52.018;8.570;2024-02-04T12:12:59;9.20;99.90
23237;DHT22;11787;52.018;8.570;2024-02-04T12:15:25;9.20;99.90
23237;DHT22;11787;52.018;8.570;2024-02-04T12:17:51;9.20;99.90
23237;DHT22;11787;52.018;8.570;2024-02-04T12:20:16;9.10;99.90
23237;DHT22;11787;52.018;8.570;2024-02-04T12:22:42;9.10;99.90
23237;DHT22;11787;52.018;8.570;2024-02-04T12:25:08;9.10;99.90
23237;DHT22;11787;52.018;8.570;2024-02-04T12:27:34;9.10;99.90
23237;DHT22;11787;52.018;8.570;2024-02-04T12:30:00;9.20;99.90
23237;DHT22;11787;52.018;8.570;2024-02-04T12:32:26;9.10;99.90
23237;DHT22;11787;52.018;8.570;2024-02-04T12:34:52;9.20;99.90
23237;DHT22;11787;52.018;8.570;2024-02-04T12:37:19;9.30;99.90
23237;DHT22;11787;52.018;8.570;2024-02-04T12:39:45;9.20;99.90
23237;DHT22;11787;52.018;8.570;2024-02-04T12:42:15;9.20;99.90
23237;DHT22;11787;52.018;8.570;2024-02-04T12:44:44;9.20;99.90
23237;DHT22;11787;52.018;8.570;2024-02-04T12:47:10;9.20;99.90
23237;DHT22;11787;52.018;8.570;2024-02-04T12:49:36;9.30;99.90
23237;DHT22;11787;52.018;8.570;2024-02-04T12:52:05;9.20;99.90
23237;DHT22;11787;52.018;8.570;2024-02-04T12:54:39;9.30;99.90
23237;DHT22;11787;52.018;8.570;2024-02-04T12:57:05;9.20;99.90
23237;DHT22;11787;52.018;8.570;2024-02-04T12:59:33;9.30;99.90
23237;DHT22;11787;52.018;8.570;2024-02-04T13:02:05;9.30;99.90
23237;DHT22;11787;52.018;8.570;2024-02-04T13:04:35;9.30;99.90
23237;DHT22;11787;52.018;8.570;2024-02-04T13:07:01;9.30;99.90
23237;DHT22;11787;52.018;8.570;2024-02-04T13:09:27;9.30;99.90
23237;DHT22;11787;52.018;8.570;2024-02-04T13:12:05;9.40;99.90
23237;DHT22;11787;52.018;8.570;2024-02-04T13:14:31;9.40;99.90
23237;DHT22;11787;52.018;8.570;2024-02-04T13:16:57;9.30;99.90
23237;DHT22;11787;52.018;8.570;2024-02-04T13:19:23;9.30;99.90
23237;DHT22;11787;52.018;8.570;2024-02-04T13:21:48;9.40;99.90
23237;DHT22;11787;52.018;8.570;2024-02-04T13:24:14;9.40;99.90
23237;DHT22;11787;52.018;8.570;2024-02-04T13:26:40;9.40;99.90
23237;DHT22;11787;52.018;8.570;2024-02-04T13:29:05;9.30;99.90
23237;DHT22;11787;52.018;8.570;2024-02-04T13:31:31;9.40;99.90
23237;DHT22;11787;52.018;8.570;2024-02-04T13:33:57;9.30;99.90
23237;DHT22;11787;52.018;8.570;2024-02-04T13:36:23;9.40;99.90
23237;DHT22;11787;52.018;8.570;2024-02-04T13:38:49;9.40;99.90
23237;DHT22;11787;52.018;8.570;2024-02-04T13:41:14;9.40;99.90
23237;DHT22;11787;52.018;8.570;2024-02-04T13:43:40;9.40;99.90
23237;DHT22;11787;52.018;8.570;2024-02-04T13:46:05;9.50;99.90
23237;DHT22;11787;52.018;8.570;2024-02-04T13:48:31;9.50;99.90
23237;DHT22;11787;52.018;8.570;2024-02-04T13:50:56;9.50;99.90
23237;DHT22;11787;52.018;8.570;2024-02-04T13:53:22;9.50;99.90
23237;DHT22;11787;52.018;8.570;2024-02-04T13:55:49;9.50;99.90
23237;DHT22;11787;52.018;8.570;2024-02-04T13:58:15;9.50;99.90
23237;DHT22;11787;52.018;8.570;2024-02-04T14:00:40;9.50;99.90
23237;DHT22;11787;52.018;8.570;2024-02-04T14:03:06;9.50;99.90
23237;DHT22;11787;52.018;8.570;2024-02-04T14:05:32;9.40;99.90
23237;DHT22;11787;52.018;8.570;2024-02-04T14:07:58;9.40;99.90
23237;DHT22;11787;52.018;8.570;2024-02-04T14:10:24;9.40;99.90
23237;DHT22;11787;52.018;8.570;2024-02-04T14:12:49;9.40;99.90
23237;DHT22;11787;52.018;8.570;2024-02-04T14:15:15;9.40;99.90
23237;DHT22;11787;52.018;8.570;2024-02-04T14:17:42;9.40;99.90
23237;DHT22;11787;52.018;8.570;2024-02-04T14:20:08;9.30;99.90
23237;DHT22;11787;52.018;8.570;2024-02-04T14:22:34;9.30;99.90
23237;DHT22;11787;52.018;8.570;2024-02-04T14:25:00;9.30;99.90
23237;DHT22;11787;52.018;8.570;2024-02-04T14:27:26;9.30;99.90
23237;DHT22;11787;52.018;8.570;2024-02-04T14:29:51;9.20;99.90
23237;DHT22;11787;52.018;8.570;2024-02-04T14:32:17;9.20;99.90
23237;DHT22;11787;52.018;8.570;2024-02-04T14:34:44;9.20;99.90
23237;DHT22;11787;52.018;8.570;2024-02-04T14:37:09;9.20;99.90
23237;DHT22;11787;52.018;8.570;2024-02-04T14:39:36;9.20;99.90
23237;DHT22;11787;52.018;8.570;2024-02-04T14:42:01;9.20;99.90
23237;DHT22;11787;52.018;8.570;2024-02-04T14:44:27;9.20;99.90
23237;DHT22;11787;52.018;8.570;2024-02-04T14:46:53;9.20;99.90
23237;DHT22;11787;52.018;8.570;2024-02-04T14:49:18;9.20;99.90
23237;DHT22;11787;52.018;8.570;2024-02-04T14:51:44;9.20;99.90
23237;DHT22;11787;52.018;8.570;2024-02-04T14:54:09;9.20;99.90
23237;DHT22;11787;52.018;8.570;2024-02-04T14:56:39;9.20;99.90
23237;DHT22;11787;52.018;8.570;2024-02-04T14:59:05;9.20;99.90
23237;DHT22;11787;52.018;8.570;2024-02-04T15:01:32;9.20;99.90
23237;DHT22;11787;52.018;8.570;2024-02-04T15:03:57;9.20;99.90
23237;DHT22;11787;52.018;8.570;2024-02-04T15:06:23;9.20;99.90
23237;DHT22;11787;52.018;8.570;2024-02-04T15:08:48;9.10;99.90
23237;DHT22;11787;52.018;8.570;2024-02-04T15:11:14;9.20;99.90
23237;DHT22;11787;52.018;8.570;2024-02-04T15:13:40;9.20;99.90
23237;DHT22;11787;52.018;8.570;2024-02-04T15:16:06;9.20;99.90
23237;DHT22;11787;52.018;8.570;2024-02-04T15:18:32;9.20;99.90
23237;DHT22;11787;52.018;8.570;2024-02-04T15:20:59;9.20;99.90
23237;DHT22;11787;52.018;8.570;2024-02-04T15:23:24;9.20;99.90
23237;DHT22;11787;52.018;8.570;2024-02-04T15:25:52;9.20;99.90
23237;DHT22;11787;52.018;8.570;2024-02-04T15:28:18;9.30;99.90
23237;DHT22;11787;52.018;8.570;2024-02-04T15:30:44;9.30;99.90
23237;DHT22;11787;52.018;8.570;2024-02-04T15:33:11;9.20;99.90
23237;DHT22;11787;52.018;8.570;2024-02-04T15:35:37;9.20;99.90
23237;DHT22;11787;52.018;8.570;2024-02-04T15:38:03;9.20;99.90
23237;DHT22;11787;52.018;8.570;2024-02-04T15:40:28;9.20;99.90
23237;DHT22;11787;52.018;8.570;2024-02-04T15:42:54;9.20;99.90
23237;DHT22;11787;52.018;8.570;2024-02-04T15:45:20;9.20;99.90
23237;DHT22;11787;52.018;8.570;2024-02-04T15:47:50;9.20;99.90
23237;DHT22;11787;52.018;8.570;2024-02-04T15:50:18;9.20;99.90
23237;DHT22;11787;52.018;8.570;2024-02-04T15:52:43;9.20;99.90
23237;DHT22;11787;52.018;8.570;2024-02-04T15:55:09;9.20;99.90
23237;DHT22;11787;52.018;8.570;2024-02-04T15:57:36;9.10;99.90
23237;DHT22;11787;52.018;8.570;2024-02-04T16:00:06;9.20;99.90
23237;DHT22;11787;52.018;8.570;2024-02-04T16:02:46;9.20;99.90
23237;DHT22;11787;52.018;8.570;2024-02-04T16:05:14;9.20;99.90
23237;DHT22;11787;52.018;8.570;2024-02-04T16:07:41;9.20;99.90
23237;DHT22;11787;52.018;8.570;2024-02-04T16:10:07;9.20;99.90